createdAt,value
2019-05-10T00:00:14.867Z,21.03
2019-05-10T00:02:22.156Z,20.98
2019-05-10T00:04:29.428Z,21.02
2019-05-10T00:06:36.655Z,21.00
2019-05-10T00:08:43.764Z,21.00
2019-05-10T00:10:45.356Z,20.98
2019-05-10T00:13:01.824Z,20.93
2019-05-10T00:15:03.414Z,20.98
2019-05-10T00:17:05.020Z,21.00
2019-05-10T00:19:06.635Z,21.00
2019-05-10T00:21:08.220Z,21.00
2019-05-10T00:23:09.819Z,20.99
2019-05-10T00:25:11.390Z,20.99
2019-05-10T00:27:13.035Z,21.02
2019-05-10T00:29:14.709Z,21.04
2019-05-10T00:31:16.261Z,21.05
2019-05-10T00:33:17.885Z,21.10
2019-05-10T00:35:19.460Z,21.11
2019-05-10T00:37:21.116Z,21.13
2019-05-10T00:39:22.732Z,21.11
2019-05-10T00:41:24.347Z,21.10
2019-05-10T00:43:25.993Z,21.07
2019-05-10T00:45:27.602Z,21.03
2019-05-10T00:47:29.296Z,21.03
2019-05-10T00:49:30.903Z,21.01
2019-05-10T00:51:32.492Z,20.98
2019-05-10T00:53:34.119Z,20.96
2019-05-10T00:55:35.734Z,20.94
2019-05-10T00:57:38.018Z,20.91
2019-05-10T00:59:39.607Z,20.90
2019-05-10T01:01:41.205Z,20.94
2019-05-10T01:03:42.837Z,20.96
2019-05-10T01:05:44.444Z,20.94
2019-05-10T01:07:46.061Z,20.97
2019-05-10T01:09:47.680Z,21.00
2019-05-10T01:11:49.296Z,21.02
2019-05-10T01:13:50.913Z,21.02
2019-05-10T01:15:52.503Z,21.02
2019-05-10T01:17:54.080Z,21.02
2019-05-10T01:19:55.734Z,21.05
2019-05-10T01:21:57.342Z,21.06
2019-05-10T01:23:58.950Z,21.06
2019-05-10T01:26:00.542Z,21.07
2019-05-10T01:28:02.165Z,21.06
2019-05-10T01:30:03.814Z,21.02
2019-05-10T01:32:05.404Z,21.03
2019-05-10T01:34:07.013Z,21.01
2019-05-10T01:36:08.665Z,20.98
2019-05-10T01:38:10.323Z,20.99
2019-05-10T01:40:11.955Z,21.02
2019-05-10T01:42:13.547Z,21.05
2019-05-10T01:44:15.134Z,21.06
2019-05-10T01:46:16.748Z,21.08
2019-05-10T01:48:18.340Z,21.10
2019-05-10T01:50:19.923Z,21.16
2019-05-10T01:52:21.557Z,21.18
2019-05-10T01:54:23.162Z,21.16
2019-05-10T01:56:24.776Z,21.12
2019-05-10T01:58:26.374Z,21.09
2019-05-10T02:00:27.964Z,21.07
2019-05-10T02:02:29.549Z,21.10
2019-05-10T02:04:31.136Z,21.16
2019-05-10T02:06:32.940Z,21.24
2019-05-10T02:08:34.524Z,21.31
2019-05-10T02:10:36.136Z,21.40
2019-05-10T02:12:37.779Z,21.45
2019-05-10T02:14:39.393Z,21.48
2019-05-10T02:16:41.017Z,21.58
2019-05-10T02:18:42.654Z,21.67
2019-05-10T02:20:44.234Z,21.70
2019-05-10T02:22:45.821Z,21.74
2019-05-10T02:24:47.416Z,21.74
2019-05-10T02:26:49.000Z,21.79
2019-05-10T02:28:50.752Z,21.81
2019-05-10T02:30:52.380Z,21.89
2019-05-10T02:32:53.969Z,21.86
2019-05-10T02:34:55.579Z,21.89
2019-05-10T02:36:57.176Z,21.86
2019-05-10T02:38:58.829Z,21.71
2019-05-10T02:41:00.421Z,21.89
2019-05-10T02:43:02.045Z,21.89
2019-05-10T02:45:03.734Z,21.65
2019-05-10T02:47:05.367Z,21.50
2019-05-10T02:49:06.959Z,21.41
2019-05-10T02:51:08.579Z,21.36
2019-05-10T02:53:10.197Z,21.49
2019-05-10T02:55:11.784Z,21.45
2019-05-10T02:57:13.394Z,21.45
2019-05-10T02:59:14.975Z,21.48
2019-05-10T03:01:16.618Z,21.43
2019-05-10T03:03:18.213Z,21.47
2019-05-10T03:05:19.832Z,21.70
2019-05-10T03:07:21.403Z,21.50
2019-05-10T03:09:22.977Z,21.47
2019-05-10T03:11:24.626Z,21.52
2019-05-10T03:13:27.190Z,21.51
2019-05-10T03:15:27.949Z,21.49
2019-05-10T03:17:29.540Z,21.50
2019-05-10T03:19:31.140Z,21.53
2019-05-10T03:21:32.729Z,21.49
2019-05-10T03:23:34.313Z,21.45
2019-05-10T03:25:35.922Z,21.42
2019-05-10T03:27:37.508Z,21.35
2019-05-10T03:29:39.097Z,21.33
2019-05-10T03:31:40.680Z,21.35
2019-05-10T03:33:42.301Z,21.34
2019-05-10T03:35:43.925Z,21.38
2019-05-10T03:37:45.554Z,21.41
2019-05-10T03:39:47.180Z,21.40
2019-05-10T03:41:48.772Z,21.39
2019-05-10T03:43:50.403Z,21.35
2019-05-10T03:45:52.012Z,21.31
2019-05-10T03:47:53.675Z,21.23
2019-05-10T03:49:55.337Z,21.21
2019-05-10T03:51:56.989Z,21.17
2019-05-10T03:53:58.585Z,21.14
2019-05-10T03:56:00.199Z,21.11
2019-05-10T03:58:01.835Z,21.12
2019-05-10T04:00:03.429Z,21.17
2019-05-10T04:02:05.070Z,21.17
2019-05-10T04:04:09.440Z,21.20
2019-05-10T04:06:08.325Z,21.28
2019-05-10T04:08:10.696Z,21.31
2019-05-10T04:10:12.305Z,21.38
2019-05-10T04:12:13.928Z,21.39
2019-05-10T04:14:15.513Z,21.43
2019-05-10T04:16:17.115Z,21.44
2019-05-10T04:18:18.777Z,21.45
2019-05-10T04:20:20.375Z,21.49
2019-05-10T04:22:22.016Z,21.47
2019-05-10T04:24:23.636Z,21.48
2019-05-10T04:26:25.234Z,21.43
2019-05-10T04:28:26.852Z,21.39
2019-05-10T04:30:31.705Z,21.36
2019-05-10T04:32:30.112Z,21.36
2019-05-10T04:34:31.713Z,21.36
2019-05-10T04:36:33.328Z,21.40
2019-05-10T04:38:34.921Z,21.45
2019-05-10T04:40:36.495Z,21.47
2019-05-10T04:42:38.155Z,21.51
2019-05-10T04:44:39.749Z,21.53
2019-05-10T04:46:41.381Z,21.54
2019-05-10T04:48:42.999Z,21.53
2019-05-10T04:50:48.772Z,21.57
2019-05-10T04:52:46.230Z,21.57
2019-05-10T04:54:47.836Z,21.58
2019-05-10T04:56:49.439Z,21.56
2019-05-10T04:58:51.047Z,21.50
2019-05-10T05:00:52.679Z,21.44
2019-05-10T05:02:54.301Z,21.49
2019-05-10T05:04:55.915Z,21.51
2019-05-10T05:06:57.560Z,21.53
2019-05-10T05:08:59.164Z,21.54
2019-05-10T05:11:00.788Z,21.55
2019-05-10T05:13:02.396Z,21.59
2019-05-10T05:15:04.014Z,21.62
2019-05-10T05:17:05.625Z,21.59
2019-05-10T05:19:07.265Z,21.56
2019-05-10T05:21:08.856Z,21.53
2019-05-10T05:23:10.476Z,21.49
2019-05-10T05:25:12.097Z,21.41
2019-05-10T05:27:13.706Z,21.32
2019-05-10T05:29:15.311Z,21.33
2019-05-10T05:31:16.924Z,21.36
2019-05-10T05:33:18.506Z,21.39
2019-05-10T05:35:20.095Z,21.43
2019-05-10T05:37:21.696Z,21.45
2019-05-10T05:39:23.288Z,21.48
2019-05-10T05:41:24.875Z,21.50
2019-05-10T05:43:26.484Z,21.50
2019-05-10T05:45:33.224Z,21.51
2019-05-10T05:47:29.749Z,21.49
2019-05-10T05:49:31.336Z,21.46
2019-05-10T05:51:33.096Z,21.41
2019-05-10T05:53:35.788Z,21.36
2019-05-10T05:55:36.341Z,21.35
2019-05-10T05:57:37.947Z,21.37
2019-05-10T05:59:39.530Z,21.39
2019-05-10T06:01:41.135Z,21.42
2019-05-10T06:03:42.727Z,21.44
2019-05-10T06:05:44.307Z,21.46
2019-05-10T06:07:45.948Z,21.49
2019-05-10T06:09:47.536Z,21.56
2019-05-10T06:11:49.144Z,21.58
2019-05-10T06:13:50.831Z,21.57
2019-05-10T06:15:52.439Z,21.60
2019-05-10T06:17:57.247Z,21.60
2019-05-10T06:20:01.026Z,21.60
2019-05-10T06:21:58.169Z,21.58
2019-05-10T06:23:59.609Z,21.55
2019-05-10T06:26:00.944Z,21.49
2019-05-10T06:28:02.619Z,21.44
2019-05-10T06:30:04.256Z,21.45
2019-05-10T06:32:05.835Z,21.48
2019-05-10T06:34:07.430Z,21.50
2019-05-10T06:36:09.001Z,21.52
2019-05-10T06:38:10.620Z,21.55
2019-05-10T06:40:12.251Z,21.59
2019-05-10T06:42:13.842Z,21.58
2019-05-10T06:44:15.436Z,21.56
2019-05-10T06:46:17.020Z,21.50
2019-05-10T06:48:25.805Z,21.45
2019-05-10T06:50:28.913Z,21.37
2019-05-10T06:52:27.568Z,21.29
2019-05-10T06:54:23.544Z,21.27
2019-05-10T06:56:25.129Z,21.30
2019-05-10T06:58:30.579Z,21.34
2019-05-10T07:00:28.350Z,21.35
2019-05-10T07:02:32.456Z,21.31
2019-05-10T07:04:36.042Z,21.26
2019-05-10T07:06:33.329Z,21.20
2019-05-10T07:08:43.657Z,21.17
2019-05-10T07:10:36.576Z,21.13
2019-05-10T07:12:38.460Z,21.08
2019-05-10T07:14:45.655Z,21.05
2019-05-10T07:16:41.608Z,21.04
2019-05-10T07:18:43.340Z,21.04
2019-05-10T07:20:44.952Z,21.06
2019-05-10T07:22:46.734Z,21.13
2019-05-10T07:24:48.370Z,21.21
2019-05-10T07:26:50.249Z,21.26
2019-05-10T07:28:57.307Z,21.33
2019-05-10T07:30:53.580Z,21.41
2019-05-10T07:32:59.687Z,21.41
2019-05-10T07:35:00.800Z,21.48
2019-05-10T07:37:01.727Z,21.51
2019-05-10T07:39:02.732Z,21.49
2019-05-10T07:41:01.853Z,21.50
2019-05-10T07:43:03.450Z,21.51
2019-05-10T07:45:05.040Z,21.54
2019-05-10T07:47:06.660Z,21.50
2019-05-10T07:49:08.347Z,21.46
2019-05-10T07:51:09.932Z,21.43
2019-05-10T07:53:16.439Z,21.46
2019-05-10T07:55:18.513Z,21.48
2019-05-10T07:57:18.736Z,21.50
2019-05-10T07:59:22.013Z,21.51
2019-05-10T08:01:29.402Z,21.53
2019-05-10T08:03:23.711Z,21.52
2019-05-10T08:05:21.490Z,21.50
2019-05-10T08:07:23.074Z,21.48
2019-05-10T08:09:24.649Z,21.46
2019-05-10T08:11:28.470Z,21.42
2019-05-10T08:13:28.452Z,21.37
2019-05-10T08:15:34.418Z,21.32
2019-05-10T08:17:35.351Z,21.25
2019-05-10T08:19:37.470Z,21.21
2019-05-10T08:21:34.638Z,21.21
2019-05-10T08:23:36.270Z,21.26
2019-05-10T08:25:44.363Z,21.33
2019-05-10T08:27:44.078Z,21.49
2019-05-10T08:29:42.929Z,21.51
2019-05-10T08:31:50.593Z,21.55
2019-05-10T08:33:53.705Z,21.56
2019-05-10T08:35:46.747Z,21.47
2019-05-10T08:37:47.853Z,21.55
2019-05-10T08:39:55.340Z,21.54
2019-05-10T08:42:03.299Z,21.54
2019-05-10T08:43:52.788Z,21.58
2019-05-10T08:45:57.708Z,21.57
2019-05-10T08:48:00.889Z,21.51
2019-05-10T08:50:11.749Z,21.48
2019-05-10T08:51:59.360Z,21.44
2019-05-10T08:54:01.793Z,21.37
2019-05-10T08:56:07.662Z,21.35
2019-05-10T08:58:04.457Z,21.34
2019-05-10T09:00:08.883Z,21.39
2019-05-10T09:02:07.760Z,21.40
2019-05-10T09:04:11.713Z,21.45
2019-05-10T09:06:15.888Z,21.19
2019-05-10T09:08:19.481Z,21.54
2019-05-10T09:10:14.309Z,21.56
2019-05-10T09:12:15.928Z,21.59
2019-05-10T09:14:20.215Z,21.61
2019-05-10T09:16:19.180Z,21.60
2019-05-10T09:18:22.721Z,21.55
2019-05-10T09:20:26.445Z,21.51
2019-05-10T09:22:32.227Z,21.46
2019-05-10T09:24:25.752Z,21.54
2019-05-10T09:26:27.420Z,21.60
2019-05-10T09:28:29.140Z,21.61
2019-05-10T09:30:32.444Z,21.63
2019-05-10T09:32:33.390Z,21.59
2019-05-10T09:34:34.334Z,21.58
2019-05-10T09:36:36.446Z,21.57
2019-05-10T09:38:40.375Z,21.57
2019-05-10T09:40:50.679Z,21.65
2019-05-10T09:42:43.489Z,21.50
2019-05-10T09:44:46.037Z,21.78
2019-05-10T09:46:45.912Z,21.72
2019-05-10T09:48:47.617Z,21.73
2019-05-10T09:50:49.281Z,21.76
2019-05-10T09:52:50.999Z,21.71
2019-05-10T09:54:52.611Z,21.46
2019-05-10T09:56:54.222Z,21.55
2019-05-10T09:58:58.147Z,21.48
2019-05-10T10:01:12.860Z,21.48
2019-05-10T10:03:01.830Z,21.47
2019-05-10T10:05:01.527Z,21.51
2019-05-10T10:07:03.135Z,21.52
2019-05-10T10:09:07.263Z,21.55
2019-05-10T10:11:13.297Z,21.62
2019-05-10T10:13:13.550Z,21.67
2019-05-10T10:15:13.676Z,21.71
2019-05-10T10:17:11.360Z,21.65
2019-05-10T10:19:12.968Z,21.73
2019-05-10T10:21:18.879Z,21.63
2019-05-10T10:23:17.291Z,21.54
2019-05-10T10:25:18.469Z,21.56
2019-05-10T10:27:20.052Z,21.63
2019-05-10T10:29:21.655Z,21.67
2019-05-10T10:31:29.667Z,21.63
2019-05-10T10:33:28.066Z,21.68
2019-05-10T10:35:29.713Z,21.73
2019-05-10T10:37:31.191Z,21.75
2019-05-10T10:39:29.914Z,21.78
2019-05-10T10:41:32.037Z,21.83
2019-05-10T10:43:33.230Z,21.87
2019-05-10T10:45:37.430Z,21.90
2019-05-10T10:47:38.075Z,21.89
2019-05-10T10:49:38.112Z,21.73
2019-05-10T10:51:39.737Z,21.64
2019-05-10T10:53:41.372Z,21.58
2019-05-10T10:55:48.489Z,21.62
2019-05-10T10:57:44.668Z,21.70
2019-05-10T10:59:47.489Z,21.70
2019-05-10T11:01:56.621Z,21.58
2019-05-10T11:03:49.602Z,21.63
2019-05-10T11:05:51.224Z,21.59
2019-05-10T11:07:52.843Z,21.55
2019-05-10T11:10:08.100Z,21.69
2019-05-10T11:11:56.120Z,21.67
2019-05-10T11:14:04.613Z,21.64
2019-05-10T11:16:09.690Z,21.60
2019-05-10T11:18:01.080Z,21.59
2019-05-10T11:20:02.708Z,21.59
2019-05-10T11:22:09.609Z,21.58
2019-05-10T11:24:10.397Z,21.60
2019-05-10T11:26:07.639Z,21.63
2019-05-10T11:28:11.859Z,21.60
2019-05-10T11:30:12.077Z,21.56
2019-05-10T11:32:16.615Z,21.50
2019-05-10T11:34:14.256Z,21.49
2019-05-10T11:36:15.864Z,21.50
2019-05-10T11:38:17.438Z,21.43
2019-05-10T11:40:29.807Z,21.39
2019-05-10T11:42:21.151Z,21.38
2019-05-10T11:44:25.733Z,21.33
2019-05-10T11:46:24.072Z,21.25
2019-05-10T11:48:29.009Z,21.19
2019-05-10T11:50:31.604Z,21.16
2019-05-10T11:56:32.497Z,21.16
2019-05-10T11:59:03.904Z,21.13
2019-05-10T11:59:05.109Z,21.23
2019-05-10T12:00:35.548Z,21.27
2019-05-10T12:02:41.846Z,21.35
2019-05-10T12:04:42.536Z,21.49
2019-05-10T12:06:41.396Z,21.62
2019-05-10T12:08:42.175Z,21.76
2019-05-10T12:10:52.656Z,21.83
2019-05-10T12:13:01.664Z,21.95
2019-05-10T12:14:47.131Z,21.99
2019-05-10T12:16:48.781Z,21.99
2019-05-10T12:19:05.558Z,21.98
2019-05-10T12:21:08.587Z,21.97
2019-05-10T12:22:53.740Z,21.95
2019-05-10T12:25:18.698Z,21.94
2019-05-10T12:25:59.517Z,21.13
2019-05-10T12:29:02.769Z,21.68
2019-05-10T12:31:01.421Z,21.63
2019-05-10T12:33:08.023Z,21.60
2019-05-10T12:35:03.750Z,21.79
2019-05-10T12:37:08.254Z,21.93
2019-05-10T12:39:07.016Z,21.93
2019-05-10T12:41:08.591Z,21.80
2019-05-10T12:43:11.009Z,21.80
2019-05-10T12:45:11.810Z,21.72
2019-05-10T12:47:13.413Z,21.91
2019-05-10T12:49:15.043Z,21.92
2019-05-10T12:51:16.777Z,21.72
2019-05-10T12:53:18.645Z,21.76
2019-05-10T12:55:19.939Z,21.79
2019-05-10T12:57:21.529Z,21.79
2019-05-10T12:59:23.147Z,21.77
2019-05-10T13:01:25.558Z,21.74
2019-05-10T13:03:31.550Z,21.72
2019-05-10T13:05:32.291Z,21.73
2019-05-10T13:07:30.692Z,21.71
2019-05-10T13:09:39.965Z,21.75
2019-05-10T13:11:33.960Z,21.89
2019-05-10T13:13:35.564Z,21.97
2019-05-10T13:15:37.188Z,21.99
2019-05-10T13:17:44.041Z,22.03
2019-05-10T13:19:40.448Z,22.01
2019-05-10T13:21:42.198Z,21.93
2019-05-10T13:23:43.774Z,21.76
2019-05-10T13:25:45.380Z,21.74
2019-05-10T13:27:46.977Z,21.67
2019-05-10T13:29:53.331Z,21.59
2019-05-10T13:31:50.236Z,21.52
2019-05-10T13:33:51.822Z,21.51
2019-05-10T13:35:56.393Z,21.47
2019-05-10T13:37:56.780Z,21.45
2019-05-10T13:39:58.279Z,21.50
2019-05-10T13:42:03.266Z,21.68
2019-05-10T13:44:04.978Z,21.81
2019-05-10T13:46:01.868Z,21.87
2019-05-10T13:48:03.480Z,21.77
2019-05-10T13:50:05.093Z,21.81
2019-05-10T13:52:06.752Z,21.94
2019-05-10T13:54:08.380Z,22.01
2019-05-10T13:56:09.993Z,22.09
2019-05-10T13:58:11.580Z,22.11
2019-05-10T14:00:13.174Z,22.07
2019-05-10T14:02:14.750Z,22.02
2019-05-10T14:04:16.336Z,21.95
2019-05-10T14:06:17.924Z,21.90
2019-05-10T14:08:19.519Z,21.87
2019-05-10T14:10:23.296Z,21.86
2019-05-10T14:12:23.700Z,21.85
2019-05-10T14:14:26.581Z,21.81
2019-05-10T14:16:26.124Z,21.78
2019-05-10T14:18:27.738Z,21.76
2019-05-10T14:20:29.314Z,21.73
2019-05-10T14:22:30.929Z,21.70
2019-05-10T14:24:34.821Z,21.67
2019-05-10T14:26:34.188Z,21.65
2019-05-10T14:28:35.772Z,21.63
2019-05-10T14:30:37.350Z,21.63
2019-05-10T14:32:38.952Z,21.61
2019-05-10T14:34:44.113Z,21.62
2019-05-10T14:36:43.513Z,21.61
2019-05-10T14:38:47.190Z,21.81
2019-05-10T14:40:45.614Z,21.47
2019-05-10T14:42:47.259Z,21.61
2019-05-10T14:44:48.873Z,21.54
2019-05-10T14:46:50.487Z,21.55
2019-05-10T14:48:52.072Z,21.59
2019-05-10T14:50:53.726Z,21.62
2019-05-10T14:52:55.319Z,21.64
2019-05-10T14:54:57.117Z,21.68
2019-05-10T14:56:58.597Z,21.71
2019-05-10T14:59:00.210Z,21.74
2019-05-10T15:01:01.812Z,21.71
2019-05-10T15:03:03.802Z,21.65
2019-05-10T15:05:09.115Z,21.62
2019-05-10T15:07:08.615Z,21.58
2019-05-10T15:09:20.651Z,21.54
2019-05-10T15:11:10.024Z,21.37
2019-05-10T15:13:11.631Z,21.51
2019-05-10T15:15:13.235Z,21.51
2019-05-10T15:17:14.828Z,21.47
2019-05-10T15:19:16.476Z,21.44
2019-05-10T15:21:18.093Z,21.42
2019-05-10T15:23:19.720Z,21.40
2019-05-10T15:25:21.342Z,21.41
2019-05-10T15:27:24.037Z,21.41
2019-05-10T15:29:24.894Z,21.38
2019-05-10T15:31:29.186Z,21.35
2019-05-10T15:33:27.948Z,21.35
2019-05-10T15:35:29.532Z,21.34
2019-05-10T15:37:31.106Z,21.31
2019-05-10T15:39:32.791Z,21.06
2019-05-10T15:41:34.393Z,21.30
2019-05-10T15:43:36.005Z,21.29
2019-05-10T15:45:37.655Z,21.27
2019-05-10T15:47:50.807Z,21.25
2019-05-10T15:49:40.914Z,21.25
2019-05-10T15:51:42.496Z,21.22
2019-05-10T15:53:44.099Z,21.33
2019-05-10T15:55:45.798Z,21.45
2019-05-10T15:57:51.707Z,21.41
2019-05-10T15:59:50.747Z,21.34
2019-05-10T16:01:50.753Z,21.23
2019-05-10T16:03:52.368Z,21.28
2019-05-10T16:06:00.689Z,21.60
2019-05-10T16:07:55.621Z,21.70
2019-05-10T16:09:57.244Z,21.91
2019-05-10T16:12:01.930Z,22.03
2019-05-10T16:14:01.747Z,22.12
2019-05-10T16:16:02.292Z,22.00
2019-05-10T16:18:03.871Z,22.02
2019-05-10T16:20:05.485Z,22.28
2019-05-10T16:22:07.108Z,22.36
2019-05-10T16:24:08.700Z,22.26
2019-05-10T16:26:10.285Z,22.05
2019-05-10T16:28:15.584Z,21.98
2019-05-10T16:30:18.272Z,21.87
2019-05-10T16:32:15.317Z,22.05
2019-05-10T16:34:16.902Z,22.29
2019-05-10T16:36:23.031Z,22.42
2019-05-10T16:38:20.240Z,22.51
2019-05-10T16:40:21.832Z,22.31
2019-05-10T16:42:27.946Z,22.11
2019-05-10T16:44:25.059Z,22.24
2019-05-10T16:46:26.644Z,22.38
2019-05-10T16:48:28.569Z,22.46
2019-05-10T16:50:31.713Z,22.49
2019-05-10T16:52:31.643Z,22.52
2019-05-10T16:54:33.251Z,22.53
2019-05-10T16:56:34.876Z,22.51
2019-05-10T16:58:36.520Z,22.51
2019-05-10T17:00:40.836Z,22.50
2019-05-10T17:02:42.208Z,22.50
2019-05-10T17:04:41.394Z,22.48
2019-05-10T17:06:43.004Z,22.51
2019-05-10T17:08:44.640Z,22.50
2019-05-10T17:10:46.224Z,22.49
2019-05-10T17:12:47.808Z,22.47
2019-05-10T17:14:50.644Z,22.48
2019-05-10T17:16:58.309Z,22.49
2019-05-10T17:18:55.384Z,22.44
2019-05-10T17:20:54.399Z,22.23
2019-05-10T17:23:07.637Z,22.38
2019-05-10T17:25:03.298Z,22.49
2019-05-10T17:26:59.373Z,22.56
2019-05-10T17:29:00.990Z,22.57
2019-05-10T17:31:07.923Z,22.59
2019-05-10T17:33:06.020Z,22.61
2019-05-10T17:35:06.726Z,22.63
2019-05-10T17:37:07.590Z,22.67
2019-05-10T17:39:09.176Z,22.45
2019-05-10T17:41:10.792Z,22.73
2019-05-10T17:43:14.283Z,22.75
2019-05-10T17:45:14.059Z,22.76
2019-05-10T17:47:15.669Z,22.72
2019-05-10T17:49:18.604Z,22.76
2019-05-10T17:51:18.996Z,22.76
2019-05-10T17:53:20.594Z,22.45
2019-05-10T17:55:25.317Z,22.26
2019-05-10T17:57:23.861Z,22.16
2019-05-10T17:59:25.448Z,22.13
2019-05-10T18:01:27.061Z,22.11
2019-05-10T18:03:28.653Z,22.11
2019-05-10T18:05:30.271Z,22.09
2019-05-10T18:07:31.885Z,22.07
2019-05-10T18:09:33.482Z,22.07
2019-05-10T18:11:36.904Z,22.06
2019-05-10T18:13:40.863Z,22.04
2019-05-10T18:15:38.392Z,22.03
2019-05-10T18:17:40.004Z,22.01
2019-05-10T18:19:41.612Z,21.97
2019-05-10T18:21:43.204Z,21.99
2019-05-10T18:23:44.843Z,21.98
2019-05-10T18:25:46.432Z,22.16
2019-05-10T18:27:48.047Z,22.39
2019-05-10T18:29:49.634Z,22.67
2019-05-10T18:31:55.905Z,22.90
2019-05-10T18:33:54.528Z,23.02
2019-05-10T18:35:54.714Z,22.88
2019-05-10T18:37:59.631Z,22.83
2019-05-10T18:39:57.884Z,22.88
2019-05-10T18:41:59.607Z,22.82
2019-05-10T18:44:01.293Z,22.83
2019-05-10T18:46:03.051Z,22.81
2019-05-10T18:48:04.600Z,22.81
2019-05-10T18:50:06.604Z,22.90
2019-05-10T18:52:08.857Z,22.92
2019-05-10T18:54:10.449Z,22.91
2019-05-10T18:56:12.096Z,22.97
2019-05-10T18:58:13.819Z,22.68
2019-05-10T19:00:17.734Z,22.70
2019-05-10T19:02:19.687Z,22.73
2019-05-10T19:04:18.711Z,22.77
2019-05-10T19:06:20.318Z,22.80
2019-05-10T19:08:21.933Z,22.87
2019-05-10T19:10:23.601Z,22.91
2019-05-10T19:12:25.547Z,23.02
2019-05-10T19:14:29.709Z,23.12
2019-05-10T19:16:32.164Z,23.12
2019-05-10T19:18:30.662Z,23.05
2019-05-10T19:20:33.348Z,23.03
2019-05-10T19:22:35.018Z,23.11
2019-05-10T19:24:36.624Z,23.06
2019-05-10T19:26:38.245Z,23.06
2019-05-10T19:28:39.872Z,23.04
2019-05-10T19:30:41.512Z,22.95
2019-05-10T19:32:43.113Z,22.95
2019-05-10T19:34:47.754Z,22.95
2019-05-10T19:36:46.469Z,22.92
2019-05-10T19:38:48.080Z,22.91
2019-05-10T19:40:49.683Z,22.91
2019-05-10T19:42:51.267Z,22.96
2019-05-10T19:44:52.884Z,22.96
2019-05-10T19:46:54.521Z,22.94
2019-05-10T19:48:56.147Z,22.82
2019-05-10T19:51:02.756Z,22.56
2019-05-10T19:53:03.804Z,22.65
2019-05-10T19:55:01.043Z,22.75
2019-05-10T19:57:02.747Z,22.82
2019-05-10T19:59:05.422Z,22.83
2019-05-10T20:01:06.130Z,22.86
2019-05-10T20:03:07.760Z,22.88
2019-05-10T20:05:09.353Z,22.93
2019-05-10T20:07:11.033Z,23.07
2019-05-10T20:09:15.731Z,23.16
2019-05-10T20:11:17.865Z,23.23
2019-05-10T20:13:19.509Z,23.24
2019-05-10T20:15:21.102Z,23.30
2019-05-10T20:17:24.169Z,23.38
2019-05-10T20:19:26.858Z,23.37
2019-05-10T20:21:28.497Z,23.40
2019-05-10T20:23:30.140Z,23.40
2019-05-10T20:25:31.719Z,23.41
2019-05-10T20:27:33.326Z,23.52
2019-05-10T20:29:34.933Z,23.57
2019-05-10T20:31:36.520Z,23.50
2019-05-10T20:33:38.108Z,23.45
2019-05-10T20:35:39.716Z,23.44
2019-05-10T20:37:41.304Z,23.42
2019-05-10T20:39:42.908Z,23.41
2019-05-10T20:41:44.528Z,23.40
2019-05-10T20:43:46.279Z,23.40
2019-05-10T20:45:47.965Z,23.38
2019-05-10T20:47:49.589Z,23.37
2019-05-10T20:49:51.195Z,23.38
2019-05-10T20:51:54.130Z,23.16
2019-05-10T20:53:55.862Z,23.15
2019-05-10T20:55:57.449Z,23.43
2019-05-10T20:57:59.064Z,23.57
2019-05-10T21:00:00.667Z,23.65
2019-05-10T21:02:02.315Z,23.64
2019-05-10T21:04:03.929Z,23.56
2019-05-10T21:06:05.524Z,23.58
2019-05-10T21:08:16.638Z,23.71
2019-05-10T21:10:08.759Z,23.69
2019-05-10T21:12:10.384Z,23.68
2019-05-10T21:14:12.155Z,23.61
2019-05-10T21:16:13.782Z,22.96
2019-05-10T21:18:15.424Z,23.07
2019-05-10T21:20:16.990Z,23.32
2019-05-10T21:22:18.576Z,23.37
2019-05-10T21:24:20.161Z,23.46
2019-05-10T21:26:21.812Z,23.44
2019-05-10T21:28:23.443Z,23.40
2019-05-10T21:30:25.028Z,23.37
2019-05-10T21:32:26.662Z,23.42
2019-05-10T21:34:28.345Z,23.39
2019-05-10T21:36:30.152Z,23.37
2019-05-10T21:38:33.392Z,23.38
2019-05-10T21:40:33.420Z,23.40
2019-05-10T21:42:34.995Z,23.50
2019-05-10T21:44:36.601Z,23.51
2019-05-10T21:46:38.187Z,23.52
2019-05-10T21:48:39.828Z,23.51
2019-05-10T21:50:41.420Z,23.40
2019-05-10T21:52:43.005Z,23.21
2019-05-10T21:54:44.609Z,22.89
2019-05-10T21:56:46.244Z,22.72
2019-05-10T21:58:47.912Z,22.65
2019-05-10T22:00:49.554Z,22.59
2019-05-10T22:02:51.264Z,22.55
2019-05-10T22:04:52.860Z,22.51
2019-05-10T22:06:54.488Z,22.49
2019-05-10T22:08:56.127Z,22.46
2019-05-10T22:10:57.711Z,22.42
2019-05-10T22:12:59.321Z,22.38
2019-05-10T22:15:00.973Z,22.34
2019-05-10T22:17:02.603Z,22.31
2019-05-10T22:19:04.199Z,22.28
2019-05-10T22:21:05.812Z,22.22
2019-05-10T22:23:07.468Z,22.15
2019-05-10T22:25:09.072Z,22.10
2019-05-10T22:27:10.688Z,22.06
2019-05-10T22:29:12.387Z,22.02
2019-05-10T22:31:14.004Z,21.98
2019-05-10T22:33:15.588Z,21.95
2019-05-10T22:35:17.173Z,21.89
2019-05-10T22:37:18.755Z,21.84
2019-05-10T22:39:20.397Z,21.81
2019-05-10T22:41:22.019Z,21.80
2019-05-10T22:43:23.603Z,21.80
2019-05-10T22:45:25.188Z,21.81
2019-05-10T22:47:26.856Z,21.83
2019-05-10T22:49:28.446Z,21.88
2019-05-10T22:51:30.088Z,21.90
2019-05-10T22:53:31.662Z,21.93
2019-05-10T22:55:33.312Z,21.91
2019-05-10T22:57:34.895Z,21.90
2019-05-10T22:59:36.473Z,21.92
2019-05-10T23:01:38.088Z,21.92
2019-05-10T23:03:39.676Z,21.92
2019-05-10T23:05:41.279Z,21.92
2019-05-10T23:07:42.891Z,21.91
2019-05-10T23:09:44.490Z,21.91
2019-05-10T23:11:46.136Z,21.93
2019-05-10T23:13:48.386Z,21.93
2019-05-10T23:15:49.984Z,21.95
2019-05-10T23:17:51.568Z,21.98
2019-05-10T23:19:53.162Z,21.98
2019-05-10T23:21:54.749Z,21.96
2019-05-10T23:23:56.379Z,21.94
2019-05-10T23:25:57.964Z,21.93
2019-05-10T23:27:59.572Z,21.92
2019-05-10T23:30:01.180Z,21.92
2019-05-10T23:32:02.755Z,21.90
2019-05-10T23:34:04.398Z,21.85
2019-05-10T23:36:06.001Z,21.93
2019-05-10T23:38:07.591Z,21.95
2019-05-10T23:40:09.163Z,22.02
2019-05-10T23:42:10.769Z,22.04
2019-05-10T23:44:12.415Z,22.07
2019-05-10T23:46:14.035Z,22.11
2019-05-10T23:48:15.621Z,22.17
2019-05-10T23:50:17.232Z,21.99
2019-05-10T23:52:18.824Z,21.97
2019-05-10T23:54:20.427Z,21.92
2019-05-10T23:56:22.038Z,21.88
2019-05-10T23:58:23.648Z,21.82
